Flugplatz Hamburg

Bericht für EDDH

vom 15.07. um 18:50 UTC

Wind 7 kt aus 90°

Sichtweite 10 km oder mehr

gute Sicht, keine Wolken < 5000 ft, keine CB, keine Wettererscheinungen (CAVOK)

Temperatur 23.0°C

Taupunkt 12.0°C

Luftfeuchtigkeit 50%

Luftdruck 1016 hPa

keine wesentliche Wetteränderung innerhalb den nächsten 2 Stunden zu erwarten

EDDH 151850Z 09007KT CAVOK 23/12 Q1016 NOSIG

Prognose für EDDH

vom 15.07. um 17:00 UTC

Zwischen 18:00 und 20:00 UTC übergehend zu

variable Windrichtung mit 3 kt

Sichtweite 10 km oder mehr

keine signifikanten Wettererscheinungen

keine Wolken


Zwischen 18:00 UTC und 00:00 UTC

Wind 7 kt aus 60°

Sichtweite 10 km oder mehr

keine signifikanten Wettererscheinungen

keine Wolken


Am 16.07. zwischen 08:00 und 10:00 UTC übergehend zu

Wind 6 kt aus 50°

Sichtweite 10 km oder mehr

keine signifikanten Wettererscheinungen

keine Wolken


Am 16.07. zwischen 18:00 und 20:00 UTC übergehend zu

variable Windrichtung mit 3 kt

Sichtweite 10 km oder mehr

keine signifikanten Wettererscheinungen

keine Wolken

TAF EDDH 151700Z 1518/1624 06007KT CAVOK BECMG 1518/1520 VRB03KT BECMG 1608/1610 05006KT BECMG 1618/1620 VRB03KT
Impressum